WetterOnline ( http://www.wetteronline.ch )

Wetter aktuell Usedom

Aktuelles Wetter: Ueckermünde (7m)

6-stündlich | Neueste Meldungen
Ortszeit Temperatur Wetter
Sa, 16.02. 19:00 8.1° C wolkig
Sa, 16.02. 13:00 13.5° C wolkenlos
Sa, 16.02. 7:00 1.5° C wolkenlos
Sa, 16.02. 1:00 2.6° C wolkenlos
Fr, 15.02. 19:00 3.9° C wolkenlos
Fr, 15.02. 13:00 7.4° C leicht bewölkt
Fr, 15.02. 7:00 3.2° C bedeckt
Fr, 15.02. 1:00 0.4° C wolkenlos
Ortszeit Temperatur Wetter
Sa, 16.02. 20:30 5.8° C leicht bewölkt
Sa, 16.02. 20:20 5.8° C leicht bewölkt
Sa, 16.02. 20:10 6.2° C wolkig
Sa, 16.02. 20:00 6.8° C wolkig
Sa, 16.02. 19:50 6.8° C wolkig
Sa, 16.02. 19:40 6.8° C wolkig
Sa, 16.02. 19:30 6.7° C wolkig
Sa, 16.02. 19:00 8.1° C wolkig
Ortszeit Relative Feuchte Sichtweite
Sa, 16.02. 19:00 58% 40 km
Sa, 16.02. 13:00 42% 20 km
Sa, 16.02. 7:00 80% 19 km
Sa, 16.02. 1:00 74% 22 km
Fr, 15.02. 19:00 78% 17 km
Fr, 15.02. 13:00 67% 9 km
Fr, 15.02. 7:00 93% 2.3 km
Fr, 15.02. 1:00 94% 3.3 km
Ortszeit Relative Feuchte Sichtweite
Sa, 16.02. 20:30 68% 26 km
Sa, 16.02. 20:20 68% -
Sa, 16.02. 20:10 67% -
Sa, 16.02. 20:00 65% 27 km
Sa, 16.02. 19:50 65% -
Sa, 16.02. 19:40 65% -
Sa, 16.02. 19:30 65% 15 km
Sa, 16.02. 19:00 58% 40 km
Ortszeit Niederschlagsmenge Niederschlagsart
Sa, 16.02. 19:00 0.0 l/m2 in 12 Std. -
Sa, 16.02. 13:00 0.0 l/m2 in 6 Std. -
Sa, 16.02. 7:00 0.0 l/m2 in 12 Std. -
Sa, 16.02. 1:00 0.0 l/m2 in 6 Std. -
Fr, 15.02. 19:00 0.0 l/m2 in 12 Std. -
Fr, 15.02. 13:00 0.0 l/m2 in 6 Std. -
Fr, 15.02. 7:00 0.0 l/m2 in 12 Std. -
Fr, 15.02. 1:00 0.0 l/m2 in 6 Std. -
Ortszeit Niederschlagsmenge Niederschlagsart
Sa, 16.02. 20:30 0.0 l/m2 in 1 Std. -
Sa, 16.02. 20:20 keine Meldung -
Sa, 16.02. 20:10 keine Meldung -
Sa, 16.02. 20:00 0.0 l/m2 in 1 Std. -
Sa, 16.02. 19:50 keine Meldung -
Sa, 16.02. 19:40 keine Meldung -
Sa, 16.02. 19:30 0.0 l/m2 in 1 Std. -
Sa, 16.02. 19:00 0.0 l/m2 in 1 Std. -
Ortszeit Stärke Spitze Richtung
km/h Bft. km/h Grad Sektor
Sa, 16.02. 19:00 9 2 33 200° S
Sa, 16.02. 13:00 18 3 32 210° SW
Sa, 16.02. 7:00 19 3 26 190° S
Sa, 16.02. 1:00 14 3 18 190° S
Fr, 15.02. 19:00 9 2 17 190° S
Fr, 15.02. 13:00 9 2 17 230° SW
Fr, 15.02. 7:00 9 2 24 280° W
Fr, 15.02. 1:00 7 2 14 220° SW
Ortszeit Stärke Spitze Richtung
km/h Bft. km/h Grad Sektor
Sa, 16.02. 20:30 11 2 14 210° SW
Sa, 16.02. 20:20 11 2 - 210° SW
Sa, 16.02. 20:10 11 2 - 210° SW
Sa, 16.02. 20:00 11 2 15 200° S
Sa, 16.02. 19:50 11 2 - 200° S
Sa, 16.02. 19:40 11 2 - 200° S
Sa, 16.02. 19:30 11 2 15 200° S
Sa, 16.02. 19:00 9 2 15 200° S
Ortszeit Untergrenze Bedeckung Gattung
total tief tief mittel hoch
Sa, 16.02. 19:00 8400 m 8/8 0/8 - - -
Sa, 16.02. 13:00 - 0/8 0/8 - - -
Sa, 16.02. 7:00 - 0/8 0/8 - - -
Sa, 16.02. 1:00 - 0/8 0/8 - - -
Fr, 15.02. 19:00 10500 m 0/8 0/8 - - -
Fr, 15.02. 13:00 10500 m 8/8 0/8 - - -
Fr, 15.02. 7:00 150 m 8/8 8/8 - - -
Fr, 15.02. 1:00 - 0/8 0/8 - - -
Ortszeit Bedeckungsgrad in Achtel und Wolkenuntergrenze
Sa, 16.02. 20:30 1(8400m) 4(10500m) 5(10500m)
Sa, 16.02. 20:20 1(8400m) 4(10500m) 5(10500m)
Sa, 16.02. 20:10 2(8100m) 7(10500m) 7(10500m)
Sa, 16.02. 20:00 6(8100m) 7(10500m) 8(10500m)
Sa, 16.02. 19:50 6(8100m) 7(10500m) 8(10500m)
Sa, 16.02. 19:40 6(8400m) 8(10500m)
Sa, 16.02. 19:30 3(8100m) 8(10500m) 8(10500m)
Sa, 16.02. 19:00 4(8400m) 4(9000m) 8(10500m)
Ortszeit Luftdruck NN (hPa) Tendenz (hPa in 3 Std.)
Sa, 16.02. 19:00 1023 + 0,5
Sa, 16.02. 13:00 1024 - 1,4
Sa, 16.02. 7:00 1025 - 1,7
Sa, 16.02. 1:00 1029 - 1,1
Fr, 15.02. 19:00 1031 - 0,9
Fr, 15.02. 13:00 1033 - 0,8
Fr, 15.02. 7:00 1033 + 0,1
Fr, 15.02. 1:00 1033 + 0,4
Ortszeit Luftdruck NN (hPa) Tendenz (hPa in 3 Std.)
Sa, 16.02. 20:30 1023 + 0,6
Sa, 16.02. 20:20 1023 keine Meldung
Sa, 16.02. 20:10 1023 keine Meldung
Sa, 16.02. 20:00 1023 + 0,6
Sa, 16.02. 19:50 1023 keine Meldung
Sa, 16.02. 19:40 1023 keine Meldung
Sa, 16.02. 19:30 1023 + 0,6
Sa, 16.02. 19:00 1023 + 0,5
Ortszeit Schneehöhe (cm)
Sa, 16.02. 19:00 0
Sa, 16.02. 13:00 0
Sa, 16.02. 7:00 0
Sa, 16.02. 1:00 0
Fr, 15.02. 19:00 0
Fr, 15.02. 13:00 0
Fr, 15.02. 7:00 0
Fr, 15.02. 1:00 0
Ortszeit Schneehöhe (cm)
Sa, 16.02. 20:30 0
Sa, 16.02. 20:20 0
Sa, 16.02. 20:10 0
Sa, 16.02. 20:00 0
Sa, 16.02. 19:50 0
Sa, 16.02. 19:40 0
Sa, 16.02. 19:30 0
Sa, 16.02. 19:00 0
Link zu dieser Seite / Seite empfehlen

Das Wetter in ...